Terminal Aerodrome Forecast
Issued by NWS Wilmington, OH

Current Version | Previous Version | Graphics & Text | Print | Product List | Glossary On
Versions: 1 2 3 4 5 6 7 8 9 10 11 12 13 14 15
519
FTUS41 KILN 261737
TAFILN
TAF
KILN 261737Z 2618/2718 29012G21KT P6SM BKN060
     FM270100 27007KT P6SM VCSH BKN100
     FM270900 28004KT P6SM SCT100
     FM271500 30007KT P6SM SCT040=

USA.gov is the U.S. government's official web portal to all federal, state and local government web resources and services.